sensor_id;sensor_type;location;lat;lon;timestamp;P1;durP1;ratioP1;P2;durP2;ratioP2
18455;SDS011;9357;49.900;8.208;2023-08-24T00:00:38;5.37;;;3.20;;
18455;SDS011;9357;49.900;8.208;2023-08-24T00:02:11;4.97;;;3.27;;
18455;SDS011;9357;49.900;8.208;2023-08-24T00:03:43;4.93;;;3.30;;
18455;SDS011;9357;49.900;8.208;2023-08-24T00:05:17;6.40;;;3.40;;
18455;SDS011;9357;49.900;8.208;2023-08-24T00:06:49;4.27;;;3.37;;
18455;SDS011;9357;49.900;8.208;2023-08-24T00:08:22;5.60;;;3.97;;
18455;SDS011;9357;49.900;8.208;2023-08-24T00:09:54;6.23;;;3.80;;
18455;SDS011;9357;49.900;8.208;2023-08-24T00:11:27;5.10;;;3.47;;
18455;SDS011;9357;49.900;8.208;2023-08-24T00:13:00;5.77;;;3.87;;
18455;SDS011;9357;49.900;8.208;2023-08-24T00:14:32;4.70;;;3.30;;
18455;SDS011;9357;49.900;8.208;2023-08-24T00:16:06;5.60;;;3.63;;
18455;SDS011;9357;49.900;8.208;2023-08-24T00:17:38;5.13;;;3.97;;
18455;SDS011;9357;49.900;8.208;2023-08-24T00:19:11;7.27;;;3.63;;
18455;SDS011;9357;49.900;8.208;2023-08-24T00:20:43;3.87;;;3.43;;
18455;SDS011;9357;49.900;8.208;2023-08-24T00:22:16;6.80;;;3.60;;
18455;SDS011;9357;49.900;8.208;2023-08-24T00:23:48;5.00;;;3.47;;
18455;SDS011;9357;49.900;8.208;2023-08-24T00:25:20;4.50;;;3.30;;
18455;SDS011;9357;49.900;8.208;2023-08-24T00:26:52;10.30;;;3.73;;
18455;SDS011;9357;49.900;8.208;2023-08-24T00:28:25;6.80;;;3.50;;
18455;SDS011;9357;49.900;8.208;2023-08-24T00:29:57;5.73;;;3.30;;
18455;SDS011;9357;49.900;8.208;2023-08-24T00:31:31;5.10;;;3.37;;
18455;SDS011;9357;49.900;8.208;2023-08-24T00:33:04;6.17;;;3.73;;
18455;SDS011;9357;49.900;8.208;2023-08-24T00:34:36;5.80;;;3.53;;
18455;SDS011;9357;49.900;8.208;2023-08-24T00:36:08;4.67;;;3.60;;
18455;SDS011;9357;49.900;8.208;2023-08-24T00:37:40;5.77;;;3.60;;
18455;SDS011;9357;49.900;8.208;2023-08-24T00:39:13;7.23;;;3.37;;
18455;SDS011;9357;49.900;8.208;2023-08-24T00:40:47;4.00;;;3.20;;
18455;SDS011;9357;49.900;8.208;2023-08-24T00:42:20;4.43;;;3.20;;
18455;SDS011;9357;49.900;8.208;2023-08-24T00:43:53;3.60;;;2.93;;
18455;SDS011;9357;49.900;8.208;2023-08-24T00:45:26;5.60;;;3.50;;
18455;SDS011;9357;49.900;8.208;2023-08-24T00:46:59;4.80;;;3.40;;
18455;SDS011;9357;49.900;8.208;2023-08-24T00:48:32;3.40;;;3.00;;
18455;SDS011;9357;49.900;8.208;2023-08-24T00:50:05;3.80;;;3.23;;
18455;SDS011;9357;49.900;8.208;2023-08-24T00:51:39;4.10;;;3.13;;
18455;SDS011;9357;49.900;8.208;2023-08-24T00:53:11;5.60;;;3.37;;
18455;SDS011;9357;49.900;8.208;2023-08-24T00:54:44;4.10;;;3.10;;
18455;SDS011;9357;49.900;8.208;2023-08-24T00:56:16;5.23;;;3.67;;
18455;SDS011;9357;49.900;8.208;2023-08-24T00:57:51;4.20;;;3.30;;
18455;SDS011;9357;49.900;8.208;2023-08-24T00:59:23;3.87;;;3.43;;
18455;SDS011;9357;49.900;8.208;2023-08-24T01:00:56;5.53;;;3.93;;
18455;SDS011;9357;49.900;8.208;2023-08-24T01:02:30;5.47;;;3.70;;
18455;SDS011;9357;49.900;8.208;2023-08-24T01:04:02;3.90;;;2.97;;
18455;SDS011;9357;49.900;8.208;2023-08-24T01:05:36;5.87;;;3.40;;
18455;SDS011;9357;49.900;8.208;2023-08-24T01:07:08;3.37;;;2.73;;
18455;SDS011;9357;49.900;8.208;2023-08-24T01:08:42;4.87;;;3.40;;
18455;SDS011;9357;49.900;8.208;2023-08-24T01:10:15;7.70;;;3.60;;
18455;SDS011;9357;49.900;8.208;2023-08-24T01:11:49;5.37;;;3.30;;
18455;SDS011;9357;49.900;8.208;2023-08-24T01:13:31;7.20;;;3.27;;
18455;SDS011;9357;49.900;8.208;2023-08-24T01:15:13;5.43;;;3.57;;
18455;SDS011;9357;49.900;8.208;2023-08-24T01:16:51;5.60;;;3.87;;
18455;SDS011;9357;49.900;8.208;2023-08-24T01:18:28;5.47;;;3.43;;
18455;SDS011;9357;49.900;8.208;2023-08-24T01:20:03;4.27;;;3.37;;
18455;SDS011;9357;49.900;8.208;2023-08-24T01:21:37;4.53;;;3.70;;
18455;SDS011;9357;49.900;8.208;2023-08-24T01:23:14;4.43;;;3.43;;
18455;SDS011;9357;49.900;8.208;2023-08-24T01:25:00;5.27;;;3.33;;
18455;SDS011;9357;49.900;8.208;2023-08-24T01:26:40;4.97;;;3.73;;
18455;SDS011;9357;49.900;8.208;2023-08-24T01:28:12;4.77;;;3.30;;
18455;SDS011;9357;49.900;8.208;2023-08-24T01:29:46;5.63;;;3.50;;
18455;SDS011;9357;49.900;8.208;2023-08-24T01:31:19;4.47;;;3.27;;
18455;SDS011;9357;49.900;8.208;2023-08-24T01:32:52;5.90;;;3.73;;
18455;SDS011;9357;49.900;8.208;2023-08-24T01:34:24;6.83;;;3.57;;
18455;SDS011;9357;49.900;8.208;2023-08-24T01:35:57;4.60;;;3.40;;
18455;SDS011;9357;49.900;8.208;2023-08-24T01:37:29;4.07;;;3.40;;
18455;SDS011;9357;49.900;8.208;2023-08-24T01:39:18;4.83;;;3.50;;
18455;SDS011;9357;49.900;8.208;2023-08-24T01:41:09;5.87;;;3.87;;
18455;SDS011;9357;49.900;8.208;2023-08-24T01:42:48;4.67;;;3.80;;
18455;SDS011;9357;49.900;8.208;2023-08-24T01:44:22;5.00;;;4.00;;
18455;SDS011;9357;49.900;8.208;2023-08-24T01:45:59;8.70;;;4.13;;
18455;SDS011;9357;49.900;8.208;2023-08-24T01:47:34;5.47;;;3.83;;
18455;SDS011;9357;49.900;8.208;2023-08-24T01:49:08;4.83;;;3.60;;
18455;SDS011;9357;49.900;8.208;2023-08-24T01:50:43;7.33;;;3.60;;
18455;SDS011;9357;49.900;8.208;2023-08-24T01:52:17;4.00;;;3.30;;
18455;SDS011;9357;49.900;8.208;2023-08-24T01:53:50;4.87;;;3.37;;
18455;SDS011;9357;49.900;8.208;2023-08-24T01:55:23;6.93;;;3.63;;
18455;SDS011;9357;49.900;8.208;2023-08-24T01:56:55;4.70;;;3.40;;
18455;SDS011;9357;49.900;8.208;2023-08-24T01:58:30;7.00;;;3.43;;
18455;SDS011;9357;49.900;8.208;2023-08-24T02:00:02;5.67;;;3.17;;
18455;SDS011;9357;49.900;8.208;2023-08-24T02:01:37;5.00;;;3.27;;
18455;SDS011;9357;49.900;8.208;2023-08-24T02:03:09;5.23;;;3.23;;
18455;SDS011;9357;49.900;8.208;2023-08-24T02:04:42;4.17;;;3.20;;
18455;SDS011;9357;49.900;8.208;2023-08-24T02:06:14;5.73;;;3.53;;
18455;SDS011;9357;49.900;8.208;2023-08-24T02:07:46;3.97;;;3.07;;
18455;SDS011;9357;49.900;8.208;2023-08-24T02:09:19;5.03;;;3.43;;
18455;SDS011;9357;49.900;8.208;2023-08-24T02:10:51;6.23;;;3.23;;
18455;SDS011;9357;49.900;8.208;2023-08-24T02:12:24;4.33;;;3.17;;
18455;SDS011;9357;49.900;8.208;2023-08-24T02:13:57;4.63;;;3.47;;
18455;SDS011;9357;49.900;8.208;2023-08-24T02:15:30;4.47;;;3.43;;
18455;SDS011;9357;49.900;8.208;2023-08-24T02:17:02;4.30;;;3.70;;
18455;SDS011;9357;49.900;8.208;2023-08-24T02:18:35;4.03;;;3.40;;
18455;SDS011;9357;49.900;8.208;2023-08-24T02:20:07;4.50;;;3.20;;
18455;SDS011;9357;49.900;8.208;2023-08-24T02:21:42;3.93;;;2.80;;
18455;SDS011;9357;49.900;8.208;2023-08-24T02:23:15;4.23;;;2.80;;
18455;SDS011;9357;49.900;8.208;2023-08-24T02:24:47;4.50;;;2.90;;
18455;SDS011;9357;49.900;8.208;2023-08-24T02:26:19;4.63;;;3.07;;
18455;SDS011;9357;49.900;8.208;2023-08-24T02:27:52;5.13;;;3.00;;
18455;SDS011;9357;49.900;8.208;2023-08-24T02:29:25;4.47;;;2.63;;
18455;SDS011;9357;49.900;8.208;2023-08-24T02:31:00;2.90;;;2.37;;
18455;SDS011;9357;49.900;8.208;2023-08-24T02:32:32;3.20;;;2.50;;
18455;SDS011;9357;49.900;8.208;2023-08-24T02:34:04;4.27;;;2.90;;
18455;SDS011;9357;49.900;8.208;2023-08-24T02:35:36;3.67;;;2.67;;
18455;SDS011;9357;49.900;8.208;2023-08-24T02:37:09;4.30;;;2.97;;
18455;SDS011;9357;49.900;8.208;2023-08-24T02:38:41;3.93;;;3.00;;
18455;SDS011;9357;49.900;8.208;2023-08-24T02:40:14;3.13;;;2.80;;
18455;SDS011;9357;49.900;8.208;2023-08-24T02:41:45;5.47;;;2.90;;
18455;SDS011;9357;49.900;8.208;2023-08-24T02:43:18;4.23;;;2.90;;
18455;SDS011;9357;49.900;8.208;2023-08-24T02:44:51;3.13;;;2.83;;
18455;SDS011;9357;49.900;8.208;2023-08-24T02:46:24;2.90;;;2.40;;
18455;SDS011;9357;49.900;8.208;2023-08-24T02:47:56;3.60;;;2.77;;
18455;SDS011;9357;49.900;8.208;2023-08-24T02:49:29;5.07;;;3.00;;
18455;SDS011;9357;49.900;8.208;2023-08-24T02:51:02;4.00;;;3.00;;
18455;SDS011;9357;49.900;8.208;2023-08-24T02:52:35;5.23;;;3.13;;
18455;SDS011;9357;49.900;8.208;2023-08-24T02:54:08;3.00;;;2.70;;
18455;SDS011;9357;49.900;8.208;2023-08-24T02:55:40;4.60;;;3.20;;
18455;SDS011;9357;49.900;8.208;2023-08-24T02:57:13;3.97;;;2.60;;
18455;SDS011;9357;49.900;8.208;2023-08-24T02:58:45;6.13;;;3.20;;
18455;SDS011;9357;49.900;8.208;2023-08-24T03:00:19;5.10;;;3.10;;
18455;SDS011;9357;49.900;8.208;2023-08-24T03:01:51;4.23;;;3.03;;
18455;SDS011;9357;49.900;8.208;2023-08-24T03:03:24;3.30;;;2.80;;
18455;SDS011;9357;49.900;8.208;2023-08-24T03:04:56;4.13;;;3.10;;
18455;SDS011;9357;49.900;8.208;2023-08-24T03:06:29;6.37;;;3.20;;
18455;SDS011;9357;49.900;8.208;2023-08-24T03:08:01;4.57;;;3.00;;
18455;SDS011;9357;49.900;8.208;2023-08-24T03:09:35;4.10;;;3.40;;
18455;SDS011;9357;49.900;8.208;2023-08-24T03:11:08;4.87;;;3.80;;
18455;SDS011;9357;49.900;8.208;2023-08-24T03:12:40;5.37;;;3.57;;
18455;SDS011;9357;49.900;8.208;2023-08-24T03:14:12;7.53;;;3.87;;
18455;SDS011;9357;49.900;8.208;2023-08-24T03:15:47;6.30;;;4.00;;
18455;SDS011;9357;49.900;8.208;2023-08-24T03:17:19;3.87;;;3.20;;
18455;SDS011;9357;49.900;8.208;2023-08-24T03:18:53;5.17;;;3.37;;
18455;SDS011;9357;49.900;8.208;2023-08-24T03:20:25;4.87;;;3.60;;
18455;SDS011;9357;49.900;8.208;2023-08-24T03:21:57;5.70;;;3.80;;
18455;SDS011;9357;49.900;8.208;2023-08-24T03:23:29;4.67;;;3.10;;
18455;SDS011;9357;49.900;8.208;2023-08-24T03:25:02;5.27;;;4.47;;
18455;SDS011;9357;49.900;8.208;2023-08-24T03:26:35;9.13;;;5.27;;
18455;SDS011;9357;49.900;8.208;2023-08-24T03:28:08;8.70;;;5.30;;
18455;SDS011;9357;49.900;8.208;2023-08-24T03:29:40;6.57;;;5.50;;
18455;SDS011;9357;49.900;8.208;2023-08-24T03:31:14;6.47;;;5.80;;
18455;SDS011;9357;49.900;8.208;2023-08-24T03:32:47;9.93;;;6.37;;
18455;SDS011;9357;49.900;8.208;2023-08-24T03:34:19;9.57;;;6.50;;
18455;SDS011;9357;49.900;8.208;2023-08-24T03:35:52;8.50;;;6.23;;
18455;SDS011;9357;49.900;8.208;2023-08-24T03:37:24;6.33;;;5.73;;
18455;SDS011;9357;49.900;8.208;2023-08-24T03:38:57;7.23;;;6.23;;
18455;SDS011;9357;49.900;8.208;2023-08-24T03:40:29;9.07;;;6.10;;
18455;SDS011;9357;49.900;8.208;2023-08-24T03:42:02;8.57;;;5.83;;
18455;SDS011;9357;49.900;8.208;2023-08-24T03:43:34;6.93;;;5.93;;
18455;SDS011;9357;49.900;8.208;2023-08-24T03:45:08;8.03;;;6.20;;
18455;SDS011;9357;49.900;8.208;2023-08-24T03:46:42;8.90;;;6.40;;
18455;SDS011;9357;49.900;8.208;2023-08-24T03:48:15;9.73;;;6.87;;
18455;SDS011;9357;49.900;8.208;2023-08-24T03:49:47;7.40;;;6.63;;
18455;SDS011;9357;49.900;8.208;2023-08-24T03:51:19;7.33;;;6.60;;
18455;SDS011;9357;49.900;8.208;2023-08-24T03:52:52;7.10;;;6.50;;
18455;SDS011;9357;49.900;8.208;2023-08-24T03:54:25;7.70;;;6.90;;
18455;SDS011;9357;49.900;8.208;2023-08-24T03:55:59;7.97;;;6.70;;
18455;SDS011;9357;49.900;8.208;2023-08-24T03:57:32;7.40;;;6.70;;
18455;SDS011;9357;49.900;8.208;2023-08-24T03:59:04;8.77;;;7.20;;
18455;SDS011;9357;49.900;8.208;2023-08-24T04:00:37;11.43;;;7.60;;
18455;SDS011;9357;49.900;8.208;2023-08-24T04:02:11;10.00;;;7.30;;
18455;SDS011;9357;49.900;8.208;2023-08-24T04:03:44;9.07;;;7.00;;
18455;SDS011;9357;49.900;8.208;2023-08-24T04:05:17;8.60;;;6.63;;
18455;SDS011;9357;49.900;8.208;2023-08-24T04:06:49;7.57;;;6.67;;
18455;SDS011;9357;49.900;8.208;2023-08-24T04:08:22;7.57;;;6.87;;
18455;SDS011;9357;49.900;8.208;2023-08-24T04:09:54;7.83;;;7.13;;
18455;SDS011;9357;49.900;8.208;2023-08-24T04:11:26;9.33;;;7.60;;
18455;SDS011;9357;49.900;8.208;2023-08-24T04:12:59;10.70;;;7.37;;
18455;SDS011;9357;49.900;8.208;2023-08-24T04:14:31;7.93;;;6.57;;
18455;SDS011;9357;49.900;8.208;2023-08-24T04:16:04;8.00;;;7.20;;
18455;SDS011;9357;49.900;8.208;2023-08-24T04:17:38;7.73;;;7.03;;
18455;SDS011;9357;49.900;8.208;2023-08-24T04:19:14;7.47;;;6.80;;
18455;SDS011;9357;49.900;8.208;2023-08-24T04:20:47;9.17;;;7.40;;
18455;SDS011;9357;49.900;8.208;2023-08-24T04:22:19;7.90;;;7.10;;
18455;SDS011;9357;49.900;8.208;2023-08-24T04:23:51;10.33;;;7.20;;
18455;SDS011;9357;49.900;8.208;2023-08-24T04:25:25;8.47;;;6.93;;
18455;SDS011;9357;49.900;8.208;2023-08-24T04:26:56;8.83;;;7.00;;
18455;SDS011;9357;49.900;8.208;2023-08-24T04:28:29;9.17;;;7.23;;
18455;SDS011;9357;49.900;8.208;2023-08-24T04:30:01;8.37;;;7.47;;
18455;SDS011;9357;49.900;8.208;2023-08-24T04:31:34;8.53;;;7.20;;
18455;SDS011;9357;49.900;8.208;2023-08-24T04:33:09;8.73;;;6.80;;
18455;SDS011;9357;49.900;8.208;2023-08-24T04:34:42;7.73;;;6.93;;
18455;SDS011;9357;49.900;8.208;2023-08-24T04:36:13;7.90;;;7.10;;
18455;SDS011;9357;49.900;8.208;2023-08-24T04:37:46;9.03;;;7.60;;
18455;SDS011;9357;49.900;8.208;2023-08-24T04:39:18;8.20;;;7.40;;
18455;SDS011;9357;49.900;8.208;2023-08-24T04:40:52;7.43;;;6.37;;
18455;SDS011;9357;49.900;8.208;2023-08-24T04:42:27;7.60;;;6.87;;
18455;SDS011;9357;49.900;8.208;2023-08-24T04:44:01;8.03;;;6.70;;
18455;SDS011;9357;49.900;8.208;2023-08-24T04:45:32;8.77;;;6.70;;
18455;SDS011;9357;49.900;8.208;2023-08-24T04:47:05;6.70;;;6.00;;
18455;SDS011;9357;49.900;8.208;2023-08-24T04:48:39;9.27;;;7.00;;
18455;SDS011;9357;49.900;8.208;2023-08-24T04:50:11;7.70;;;7.00;;
18455;SDS011;9357;49.900;8.208;2023-08-24T04:51:43;9.47;;;6.80;;
18455;SDS011;9357;49.900;8.208;2023-08-24T04:53:17;10.37;;;6.80;;
18455;SDS011;9357;49.900;8.208;2023-08-24T04:54:49;7.13;;;6.47;;
18455;SDS011;9357;49.900;8.208;2023-08-24T04:56:22;7.87;;;7.07;;
18455;SDS011;9357;49.900;8.208;2023-08-24T04:57:54;7.10;;;6.33;;
18455;SDS011;9357;49.900;8.208;2023-08-24T04:59:27;7.53;;;6.13;;
18455;SDS011;9357;49.900;8.208;2023-08-24T05:00:59;8.53;;;6.23;;
18455;SDS011;9357;49.900;8.208;2023-08-24T05:02:32;7.50;;;6.50;;
18455;SDS011;9357;49.900;8.208;2023-08-24T05:04:05;7.57;;;6.77;;
18455;SDS011;9357;49.900;8.208;2023-08-24T05:05:38;6.93;;;6.23;;
18455;SDS011;9357;49.900;8.208;2023-08-24T05:07:10;7.33;;;5.80;;
18455;SDS011;9357;49.900;8.208;2023-08-24T05:08:42;7.43;;;6.00;;
18455;SDS011;9357;49.900;8.208;2023-08-24T05:10:14;11.13;;;7.13;;
18455;SDS011;9357;49.900;8.208;2023-08-24T05:11:47;8.03;;;6.40;;
18455;SDS011;9357;49.900;8.208;2023-08-24T05:13:19;6.50;;;5.77;;
18455;SDS011;9357;49.900;8.208;2023-08-24T05:14:53;6.93;;;5.33;;
18455;SDS011;9357;49.900;8.208;2023-08-24T05:16:24;6.73;;;5.80;;
18455;SDS011;9357;49.900;8.208;2023-08-24T05:17:59;9.20;;;6.30;;
18455;SDS011;9357;49.900;8.208;2023-08-24T05:19:32;6.10;;;5.50;;
18455;SDS011;9357;49.900;8.208;2023-08-24T05:21:05;8.20;;;5.57;;
18455;SDS011;9357;49.900;8.208;2023-08-24T05:22:37;8.00;;;5.93;;
18455;SDS011;9357;49.900;8.208;2023-08-24T05:24:10;8.63;;;5.40;;
18455;SDS011;9357;49.900;8.208;2023-08-24T05:25:42;7.03;;;5.50;;
18455;SDS011;9357;49.900;8.208;2023-08-24T05:27:16;8.87;;;5.80;;
18455;SDS011;9357;49.900;8.208;2023-08-24T05:28:49;9.00;;;6.40;;
18455;SDS011;9357;49.900;8.208;2023-08-24T05:30:21;9.73;;;6.77;;
18455;SDS011;9357;49.900;8.208;2023-08-24T05:31:55;8.87;;;5.67;;
18455;SDS011;9357;49.900;8.208;2023-08-24T05:33:28;7.07;;;5.90;;
18455;SDS011;9357;49.900;8.208;2023-08-24T05:35:04;9.07;;;6.50;;
18455;SDS011;9357;49.900;8.208;2023-08-24T05:36:37;9.57;;;6.00;;
18455;SDS011;9357;49.900;8.208;2023-08-24T05:38:10;8.87;;;5.87;;
18455;SDS011;9357;49.900;8.208;2023-08-24T05:39:42;7.47;;;6.77;;
18455;SDS011;9357;49.900;8.208;2023-08-24T05:41:15;6.33;;;5.73;;
18455;SDS011;9357;49.900;8.208;2023-08-24T05:42:48;8.27;;;5.40;;
18455;SDS011;9357;49.900;8.208;2023-08-24T05:44:19;6.50;;;5.80;;
18455;SDS011;9357;49.900;8.208;2023-08-24T05:45:53;7.70;;;6.67;;
18455;SDS011;9357;49.900;8.208;2023-08-24T05:47:26;7.63;;;6.57;;
18455;SDS011;9357;49.900;8.208;2023-08-24T05:48:59;8.47;;;5.83;;
18455;SDS011;9357;49.900;8.208;2023-08-24T05:50:32;7.73;;;6.03;;
18455;SDS011;9357;49.900;8.208;2023-08-24T05:52:05;6.60;;;5.63;;
18455;SDS011;9357;49.900;8.208;2023-08-24T05:53:38;7.87;;;5.87;;
18455;SDS011;9357;49.900;8.208;2023-08-24T05:55:11;7.93;;;6.90;;
18455;SDS011;9357;49.900;8.208;2023-08-24T05:56:44;6.57;;;5.83;;
18455;SDS011;9357;49.900;8.208;2023-08-24T05:58:16;9.33;;;6.87;;
18455;SDS011;9357;49.900;8.208;2023-08-24T05:59:49;8.17;;;7.20;;
18455;SDS011;9357;49.900;8.208;2023-08-24T06:01:21;6.77;;;5.87;;
18455;SDS011;9357;49.900;8.208;2023-08-24T06:02:53;7.10;;;6.43;;
18455;SDS011;9357;49.900;8.208;2023-08-24T06:04:25;8.73;;;6.70;;
18455;SDS011;9357;49.900;8.208;2023-08-24T06:06:03;6.80;;;6.10;;
18455;SDS011;9357;49.900;8.208;2023-08-24T06:07:36;7.90;;;5.90;;
18455;SDS011;9357;49.900;8.208;2023-08-24T06:09:08;6.53;;;5.37;;
18455;SDS011;9357;49.900;8.208;2023-08-24T06:10:41;6.87;;;4.90;;
18455;SDS011;9357;49.900;8.208;2023-08-24T06:12:13;8.30;;;5.93;;
18455;SDS011;9357;49.900;8.208;2023-08-24T06:13:46;7.83;;;6.40;;
18455;SDS011;9357;49.900;8.208;2023-08-24T06:15:18;9.30;;;6.80;;
18455;SDS011;9357;49.900;8.208;2023-08-24T06:16:51;9.73;;;7.30;;
18455;SDS011;9357;49.900;8.208;2023-08-24T06:18:24;8.93;;;7.50;;
18455;SDS011;9357;49.900;8.208;2023-08-24T06:19:57;8.40;;;7.63;;
18455;SDS011;9357;49.900;8.208;2023-08-24T06:21:30;8.67;;;7.80;;
18455;SDS011;9357;49.900;8.208;2023-08-24T06:23:03;8.87;;;6.97;;
18455;SDS011;9357;49.900;8.208;2023-08-24T06:24:36;7.97;;;6.97;;
18455;SDS011;9357;49.900;8.208;2023-08-24T06:26:08;8.40;;;6.33;;
18455;SDS011;9357;49.900;8.208;2023-08-24T06:27:41;6.63;;;5.93;;
18455;SDS011;9357;49.900;8.208;2023-08-24T06:29:13;6.70;;;6.00;;
18455;SDS011;9357;49.900;8.208;2023-08-24T06:30:46;7.77;;;6.27;;
18455;SDS011;9357;49.900;8.208;2023-08-24T06:32:19;6.53;;;5.90;;
18455;SDS011;9357;49.900;8.208;2023-08-24T06:33:50;6.63;;;5.77;;
18455;SDS011;9357;49.900;8.208;2023-08-24T06:35:24;6.77;;;6.13;;
18455;SDS011;9357;49.900;8.208;2023-08-24T06:36:58;6.80;;;6.10;;
18455;SDS011;9357;49.900;8.208;2023-08-24T06:38:33;5.90;;;5.27;;
18455;SDS011;9357;49.900;8.208;2023-08-24T06:40:05;6.27;;;5.00;;
18455;SDS011;9357;49.900;8.208;2023-08-24T06:41:39;7.10;;;5.47;;
18455;SDS011;9357;49.900;8.208;2023-08-24T06:43:11;11.40;;;6.23;;
18455;SDS011;9357;49.900;8.208;2023-08-24T06:44:44;8.90;;;6.60;;
18455;SDS011;9357;49.900;8.208;2023-08-24T06:46:16;7.10;;;6.40;;
18455;SDS011;9357;49.900;8.208;2023-08-24T06:47:50;6.40;;;5.80;;
18455;SDS011;9357;49.900;8.208;2023-08-24T06:49:23;6.87;;;5.60;;
18455;SDS011;9357;49.900;8.208;2023-08-24T06:50:56;6.83;;;6.17;;
18455;SDS011;9357;49.900;8.208;2023-08-24T06:52:30;5.50;;;5.00;;
18455;SDS011;9357;49.900;8.208;2023-08-24T06:54:02;7.10;;;5.83;;
18455;SDS011;9357;49.900;8.208;2023-08-24T06:55:34;6.13;;;5.33;;
18455;SDS011;9357;49.900;8.208;2023-08-24T06:57:07;5.90;;;5.30;;
18455;SDS011;9357;49.900;8.208;2023-08-24T06:58:39;7.07;;;5.50;;
18455;SDS011;9357;49.900;8.208;2023-08-24T07:00:14;6.47;;;5.40;;
18455;SDS011;9357;49.900;8.208;2023-08-24T07:01:47;6.90;;;4.83;;
18455;SDS011;9357;49.900;8.208;2023-08-24T07:03:19;6.80;;;5.10;;
18455;SDS011;9357;49.900;8.208;2023-08-24T07:04:52;6.33;;;4.77;;
18455;SDS011;9357;49.900;8.208;2023-08-24T07:06:23;9.60;;;5.90;;
18455;SDS011;9357;49.900;8.208;2023-08-24T07:07:58;6.47;;;5.87;;
18455;SDS011;9357;49.900;8.208;2023-08-24T07:09:30;6.83;;;5.90;;
18455;SDS011;9357;49.900;8.208;2023-08-24T07:11:02;7.73;;;6.20;;
18455;SDS011;9357;49.900;8.208;2023-08-24T07:12:35;6.63;;;5.97;;
18455;SDS011;9357;49.900;8.208;2023-08-24T07:14:07;7.93;;;7.07;;
18455;SDS011;9357;49.900;8.208;2023-08-24T07:15:40;7.27;;;6.53;;
18455;SDS011;9357;49.900;8.208;2023-08-24T07:17:13;8.40;;;6.47;;
18455;SDS011;9357;49.900;8.208;2023-08-24T07:18:46;7.77;;;5.10;;
18455;SDS011;9357;49.900;8.208;2023-08-24T07:20:17;6.07;;;5.10;;
18455;SDS011;9357;49.900;8.208;2023-08-24T07:21:50;8.00;;;5.43;;
18455;SDS011;9357;49.900;8.208;2023-08-24T07:23:24;8.90;;;5.17;;
18455;SDS011;9357;49.900;8.208;2023-08-24T07:24:57;7.67;;;5.10;;
18455;SDS011;9357;49.900;8.208;2023-08-24T07:26:29;8.40;;;5.97;;
18455;SDS011;9357;49.900;8.208;2023-08-24T07:28:01;11.03;;;5.80;;
18455;SDS011;9357;49.900;8.208;2023-08-24T07:29:35;6.80;;;5.73;;
18455;SDS011;9357;49.900;8.208;2023-08-24T07:31:07;7.23;;;6.53;;
18455;SDS011;9357;49.900;8.208;2023-08-24T07:32:42;7.27;;;5.60;;
18455;SDS011;9357;49.900;8.208;2023-08-24T07:34:14;6.53;;;5.83;;
18455;SDS011;9357;49.900;8.208;2023-08-24T07:35:46;6.70;;;5.87;;
18455;SDS011;9357;49.900;8.208;2023-08-24T07:37:19;7.07;;;6.37;;
18455;SDS011;9357;49.900;8.208;2023-08-24T07:38:52;6.80;;;6.17;;
18455;SDS011;9357;49.900;8.208;2023-08-24T07:40:25;6.87;;;6.30;;
18455;SDS011;9357;49.900;8.208;2023-08-24T07:41:57;8.67;;;6.40;;
18455;SDS011;9357;49.900;8.208;2023-08-24T07:43:30;14.53;;;6.50;;
18455;SDS011;9357;49.900;8.208;2023-08-24T07:45:03;9.30;;;6.70;;
18455;SDS011;9357;49.900;8.208;2023-08-24T07:46:38;9.70;;;6.97;;
18455;SDS011;9357;49.900;8.208;2023-08-24T07:48:11;8.03;;;6.40;;
18455;SDS011;9357;49.900;8.208;2023-08-24T07:49:43;9.23;;;5.77;;
18455;SDS011;9357;49.900;8.208;2023-08-24T07:51:16;6.60;;;5.47;;
18455;SDS011;9357;49.900;8.208;2023-08-24T07:52:49;8.80;;;5.17;;
18455;SDS011;9357;49.900;8.208;2023-08-24T07:54:22;5.17;;;4.77;;
18455;SDS011;9357;49.900;8.208;2023-08-24T07:55:55;7.93;;;5.40;;
18455;SDS011;9357;49.900;8.208;2023-08-24T07:57:28;8.50;;;5.60;;
18455;SDS011;9357;49.900;8.208;2023-08-24T07:59:02;6.93;;;5.73;;
18455;SDS011;9357;49.900;8.208;2023-08-24T08:00:35;6.63;;;6.03;;
18455;SDS011;9357;49.900;8.208;2023-08-24T08:02:07;6.80;;;6.10;;
18455;SDS011;9357;49.900;8.208;2023-08-24T08:03:40;7.00;;;6.30;;
18455;SDS011;9357;49.900;8.208;2023-08-24T08:05:12;7.00;;;6.30;;
18455;SDS011;9357;49.900;8.208;2023-08-24T08:06:45;7.17;;;6.40;;
18455;SDS011;9357;49.900;8.208;2023-08-24T08:08:17;8.57;;;6.97;;
18455;SDS011;9357;49.900;8.208;2023-08-24T08:09:51;8.70;;;6.40;;
18455;SDS011;9357;49.900;8.208;2023-08-24T08:11:23;8.03;;;7.20;;
18455;SDS011;9357;49.900;8.208;2023-08-24T08:12:56;8.37;;;7.07;;
18455;SDS011;9357;49.900;8.208;2023-08-24T08:14:29;8.40;;;6.90;;
18455;SDS011;9357;49.900;8.208;2023-08-24T08:16:01;9.07;;;7.43;;
18455;SDS011;9357;49.900;8.208;2023-08-24T08:17:35;8.47;;;7.53;;
18455;SDS011;9357;49.900;8.208;2023-08-24T08:19:07;8.83;;;7.20;;
18455;SDS011;9357;49.900;8.208;2023-08-24T08:20:40;8.70;;;6.40;;
18455;SDS011;9357;49.900;8.208;2023-08-24T08:22:12;6.93;;;6.33;;
18455;SDS011;9357;49.900;8.208;2023-08-24T08:23:45;8.03;;;6.70;;
18455;SDS011;9357;49.900;8.208;2023-08-24T08:25:18;9.00;;;6.77;;
18455;SDS011;9357;49.900;8.208;2023-08-24T08:26:53;10.60;;;6.33;;
18455;SDS011;9357;49.900;8.208;2023-08-24T08:28:25;7.00;;;6.40;;
18455;SDS011;9357;49.900;8.208;2023-08-24T08:29:58;7.40;;;5.67;;
18455;SDS011;9357;49.900;8.208;2023-08-24T08:31:29;7.77;;;5.50;;
18455;SDS011;9357;49.900;8.208;2023-08-24T08:33:03;6.03;;;5.20;;
18455;SDS011;9357;49.900;8.208;2023-08-24T08:34:35;7.57;;;5.20;;
18455;SDS011;9357;49.900;8.208;2023-08-24T08:36:07;6.93;;;5.43;;
18455;SDS011;9357;49.900;8.208;2023-08-24T08:37:40;6.27;;;5.47;;
18455;SDS011;9357;49.900;8.208;2023-08-24T08:39:12;5.13;;;4.60;;
18455;SDS011;9357;49.900;8.208;2023-08-24T08:40:46;5.63;;;4.87;;
18455;SDS011;9357;49.900;8.208;2023-08-24T08:42:21;6.77;;;4.33;;
18455;SDS011;9357;49.900;8.208;2023-08-24T08:43:54;5.53;;;3.87;;
18455;SDS011;9357;49.900;8.208;2023-08-24T08:45:26;4.20;;;3.90;;
18455;SDS011;9357;49.900;8.208;2023-08-24T08:47:00;6.33;;;4.10;;
18455;SDS011;9357;49.900;8.208;2023-08-24T08:48:32;4.43;;;3.70;;
18455;SDS011;9357;49.900;8.208;2023-08-24T08:50:07;5.23;;;3.93;;
18455;SDS011;9357;49.900;8.208;2023-08-24T08:51:40;6.50;;;4.60;;
18455;SDS011;9357;49.900;8.208;2023-08-24T08:53:13;5.73;;;4.20;;
18455;SDS011;9357;49.900;8.208;2023-08-24T08:54:46;5.27;;;4.30;;
18455;SDS011;9357;49.900;8.208;2023-08-24T08:56:23;4.40;;;3.63;;
18455;SDS011;9357;49.900;8.208;2023-08-24T08:57:56;5.30;;;4.03;;
18455;SDS011;9357;49.900;8.208;2023-08-24T08:59:30;5.30;;;4.00;;
18455;SDS011;9357;49.900;8.208;2023-08-24T09:01:04;5.03;;;4.23;;
18455;SDS011;9357;49.900;8.208;2023-08-24T09:02:37;4.40;;;4.00;;
18455;SDS011;9357;49.900;8.208;2023-08-24T09:04:11;4.50;;;4.10;;
18455;SDS011;9357;49.900;8.208;2023-08-24T09:05:43;6.30;;;4.27;;
18455;SDS011;9357;49.900;8.208;2023-08-24T09:07:19;6.30;;;4.10;;
18455;SDS011;9357;49.900;8.208;2023-08-24T09:08:51;4.73;;;3.90;;
18455;SDS011;9357;49.900;8.208;2023-08-24T09:10:25;6.83;;;4.17;;
18455;SDS011;9357;49.900;8.208;2023-08-24T09:11:58;5.80;;;4.30;;
18455;SDS011;9357;49.900;8.208;2023-08-24T09:13:32;4.43;;;3.90;;
18455;SDS011;9357;49.900;8.208;2023-08-24T09:15:04;4.30;;;3.90;;
18455;SDS011;9357;49.900;8.208;2023-08-24T09:16:38;6.50;;;4.23;;
18455;SDS011;9357;49.900;8.208;2023-08-24T09:18:10;7.40;;;4.00;;
18455;SDS011;9357;49.900;8.208;2023-08-24T09:19:43;4.90;;;4.13;;
18455;SDS011;9357;49.900;8.208;2023-08-24T09:21:15;4.50;;;4.10;;
18455;SDS011;9357;49.900;8.208;2023-08-24T09:22:48;4.33;;;3.63;;
18455;SDS011;9357;49.900;8.208;2023-08-24T09:24:20;4.67;;;4.00;;
18455;SDS011;9357;49.900;8.208;2023-08-24T09:26:01;4.00;;;3.70;;
18455;SDS011;9357;49.900;8.208;2023-08-24T09:27:37;4.07;;;3.63;;
18455;SDS011;9357;49.900;8.208;2023-08-24T09:29:10;4.57;;;3.70;;